Time;durP1;ratioP1;P1;durP2;ratioP2;P2;SDS_P1;SDS_P2;PMS_P1;PMS_P2;Temp;Humidity;BMP_temperature;BMP_pressure;BME280_temperature;BME280_humidity;BME280_pressure;Samples;Min_cycle;Max_cycle;Signal;HPM_P1;HPM_P2
2022/04/10 00:01:00;;;;;;;6.70;1.10;;;;;;;2.19;95.75;100670.98;105111;1267;156217;-72
2022/04/10 00:03:32;;;;;;;10.10;1.90;;;;;;;2.19;95.67;100677.90;104902;1274;61285;-72
2022/04/10 00:06:02;;;;;;;7.20;1.90;;;;;;;2.20;95.70;100679.45;105649;1268;146711;-80
2022/04/10 00:08:32;;;;;;;5.00;1.90;;;;;;;2.20;95.52;100687.94;105145;1274;75884;-82
2022/04/10 00:11:01;;;;;;;4.30;1.40;;;;;;;2.21;95.34;100683.86;105146;1273;71453;-79
2022/04/10 00:13:35;;;;;;;6.20;1.40;;;;;;;2.20;95.35;100680.63;105144;1273;73813;-82
2022/04/10 00:16:02;;;;;;;6.50;1.70;;;;;;;2.17;95.41;100691.18;105088;1273;61647;-73
2022/04/10 00:18:37;;;;;;;7.40;1.60;;;;;;;2.14;95.55;100685.29;104951;1273;61294;-74
2022/04/10 00:21:07;;;;;;;3.50;0.90;;;;;;;2.11;95.51;100693.91;104928;1274;75820;-72
2022/04/10 00:23:34;;;;;;;7.90;1.60;;;;;;;2.09;95.51;100682.57;104882;1273;72380;-73
2022/04/10 00:26:01;;;;;;;4.20;1.60;;;;;;;2.06;95.71;100684.00;104837;1273;73250;-73
2022/04/10 00:28:31;;;;;;;6.40;1.80;;;;;;;2.04;96.09;100684.66;104957;1274;61934;-71
2022/04/10 00:30:57;;;;;;;5.60;1.20;;;;;;;2.02;95.96;100688.65;104802;1274;61928;-73
2022/04/10 00:33:25;;;;;;;4.40;1.60;;;;;;;2.01;96.22;100684.52;104862;1274;73930;-72
2022/04/10 00:35:52;;;;;;;5.40;1.90;;;;;;;2.01;96.14;100687.88;104868;1275;72382;-72
2022/04/10 00:38:20;;;;;;;4.60;1.60;;;;;;;2.00;95.99;100687.30;104835;1274;73965;-72
2022/04/10 00:40:46;;;;;;;6.70;2.00;;;;;;;1.99;96.08;100687.69;104871;1274;61303;-71
2022/04/10 00:43:13;;;;;;;4.00;1.50;;;;;;;1.96;95.94;100687.35;104789;1275;61485;-74
2022/04/10 00:45:39;;;;;;;4.10;1.50;;;;;;;1.93;95.83;100687.23;104866;1274;61802;-72
2022/04/10 00:48:06;;;;;;;3.90;1.20;;;;;;;1.90;95.60;100685.45;104833;1274;61467;-72
2022/04/10 00:50:33;;;;;;;9.90;1.40;;;;;;;1.86;95.71;100687.11;104804;1274;61214;-70
2022/04/10 00:53:10;;;;;;;6.20;1.70;;;;;;;1.83;95.94;100686.44;104844;1274;61221;-72
2022/04/10 00:55:37;;;;;;;6.50;1.50;;;;;;;1.81;96.09;100691.17;104797;1275;61465;-74
2022/04/10 00:58:04;;;;;;;11.90;1.70;;;;;;;1.79;96.26;100692.39;104823;1274;61265;-72
2022/04/10 01:00:30;;;;;;;4.70;1.10;;;;;;;1.75;96.41;100691.59;104875;1274;72793;-70
2022/04/10 01:02:57;;;;;;;3.10;1.10;;;;;;;1.73;96.78;100693.05;104828;1274;72974;-73
2022/04/10 01:05:24;;;;;;;5.30;1.50;;;;;;;1.71;96.73;100697.39;104877;1274;62474;-71
2022/04/10 01:07:50;;;;;;;5.30;1.20;;;;;;;1.70;96.79;100696.41;104863;1272;61524;-70
2022/04/10 01:10:17;;;;;;;1.70;0.80;;;;;;;1.69;96.97;100697.01;104769;1274;74006;-71
2022/04/10 01:12:47;;;;;;;9.70;1.70;;;;;;;1.67;97.14;100693.86;104788;1275;71417;-73
2022/04/10 01:15:15;;;;;;;7.40;1.70;;;;;;;1.63;97.21;100703.48;104863;1274;74672;-75
2022/04/10 01:17:44;;;;;;;9.70;1.40;;;;;;;1.62;97.46;100704.92;104851;1273;61296;-69
2022/04/10 01:20:11;;;;;;;11.70;2.00;;;;;;;1.61;97.40;100710.95;104866;1274;61293;-72
2022/04/10 01:22:40;;;;;;;2.50;1.30;;;;;;;1.59;97.42;100711.52;104762;1276;74429;-71
2022/04/10 01:25:08;;;;;;;7.30;1.90;;;;;;;1.57;97.77;100715.30;104841;1274;72571;-74
2022/04/10 01:27:37;;;;;;;5.10;1.90;;;;;;;1.55;97.98;100712.52;104900;1274;72928;-74
2022/04/10 01:30:09;;;;;;;6.10;1.20;;;;;;;1.51;98.37;100717.83;104925;1274;61280;-72
2022/04/10 01:32:36;;;;;;;5.50;1.10;;;;;;;1.49;98.37;100722.20;104864;1274;61467;-72
2022/04/10 01:35:04;;;;;;;4.00;1.20;;;;;;;1.46;98.74;100722.06;104783;1274;75978;-72
2022/04/10 01:37:35;;;;;;;10.00;1.50;;;;;;;1.43;99.11;100728.06;104839;1274;70814;-70
2022/04/10 01:40:03;;;;;;;4.70;1.10;;;;;;;1.40;99.36;100728.45;104788;1274;73117;-72
2022/04/10 01:42:30;;;;;;;6.10;1.10;;;;;;;1.35;99.65;100722.70;104819;1274;61571;-72
2022/04/10 01:44:59;;;;;;;9.70;3.40;;;;;;;1.34;99.90;100727.88;104886;1274;61197;-70
2022/04/10 01:47:26;;;;;;;3.00;1.10;;;;;;;1.30;99.98;100731.09;104882;1274;75045;-71
2022/04/10 01:49:52;;;;;;;5.00;2.10;;;;;;;1.26;100.00;100730.38;104823;1274;61213;-69
2022/04/10 01:52:19;;;;;;;3.20;1.00;;;;;;;1.25;100.00;100737.45;104931;1274;73140;-72
2022/04/10 01:54:46;;;;;;;8.80;1.80;;;;;;;1.21;100.00;100736.80;104835;1274;62177;-74
2022/04/10 01:57:12;;;;;;;4.30;1.50;;;;;;;1.19;100.00;100734.00;104846;1274;61340;-72
2022/04/10 01:59:39;;;;;;;3.70;1.60;;;;;;;1.17;100.00;100738.32;104747;1276;61265;-72
2022/04/10 02:02:06;;;;;;;13.00;2.20;;;;;;;1.17;100.00;100742.31;104828;1274;72472;-69
2022/04/10 02:04:34;;;;;;;5.10;1.50;;;;;;;1.18;100.00;100736.52;104791;1275;72725;-72
2022/04/10 02:07:00;;;;;;;4.00;1.10;;;;;;;1.20;100.00;100735.14;104987;1274;61217;-71
2022/04/10 02:09:27;;;;;;;4.80;1.30;;;;;;;1.25;100.00;100738.09;104843;1274;61300;-72
2022/04/10 02:11:53;;;;;;;11.70;1.90;;;;;;;1.32;100.00;100731.46;104878;1274;76201;-72
2022/04/10 02:14:20;;;;;;;6.20;1.90;;;;;;;1.38;100.00;100729.09;104790;1277;61394;-72
2022/04/10 02:16:49;;;;;;;10.10;2.30;;;;;;;1.42;100.00;100732.28;104913;1274;72892;-74
2022/04/10 02:19:16;;;;;;;4.10;1.50;;;;;;;1.46;100.00;100725.38;104855;1274;61224;-73
2022/04/10 02:21:46;;;;;;;2.50;1.10;;;;;;;1.50;99.99;100726.81;104877;1274;61597;-72
2022/04/10 02:24:13;;;;;;;6.60;1.50;;;;;;;1.53;100.00;100731.17;104827;1274;75139;-72
2022/04/10 02:26:40;;;;;;;9.80;2.20;;;;;;;1.55;99.68;100727.30;104860;1274;72532;-70
2022/04/10 02:29:06;;;;;;;8.20;1.60;;;;;;;1.58;99.82;100732.52;104841;1274;62672;-70
2022/04/10 02:31:33;;;;;;;9.30;2.10;;;;;;;1.59;99.30;100726.83;104860;1274;61279;-72
2022/04/10 02:34:00;;;;;;;9.60;2.90;;;;;;;1.60;99.15;100721.86;104828;1274;61266;-69
2022/04/10 02:36:27;;;;;;;6.00;1.30;;;;;;;1.60;98.93;100721.15;104845;1274;76007;-71
2022/04/10 02:38:53;;;;;;;12.20;1.80;;;;;;;1.61;98.34;100720.39;104862;1274;72424;-71
2022/04/10 02:41:21;;;;;;;4.90;1.20;;;;;;;1.62;98.11;100723.48;104871;1274;71680;-72
2022/04/10 02:43:47;;;;;;;5.90;2.10;;;;;;;1.59;97.98;100726.13;104816;1276;61724;-72
2022/04/10 02:46:14;;;;;;;15.30;2.30;;;;;;;1.57;98.16;100727.19;104848;1274;61209;-70
2022/04/10 02:48:41;;;;;;;4.00;1.70;;;;;;;1.54;98.19;100726.37;104852;1275;75745;-72
2022/04/10 02:51:08;;;;;;;11.10;1.60;;;;;;;1.50;98.25;100727.16;104411;1274;612982;-72
2022/04/10 02:53:35;;;;;;;14.80;1.90;;;;;;;1.47;98.31;100729.31;104884;1273;72950;-71
2022/04/10 02:56:01;;;;;;;7.70;2.20;;;;;;;1.47;98.40;100734.69;104872;1274;62372;-71
2022/04/10 02:58:28;;;;;;;5.50;1.40;;;;;;;1.48;98.23;100728.87;104880;1273;61431;-73
2022/04/10 03:00:57;;;;;;;9.80;1.60;;;;;;;1.50;98.25;100726.32;104859;1274;75752;-70
2022/04/10 03:03:25;;;;;;;8.60;1.90;;;;;;;1.52;98.30;100725.81;104899;1274;71370;-70
2022/04/10 03:05:52;;;;;;;4.40;1.50;;;;;;;1.54;98.28;100727.05;104850;1274;73931;-69
2022/04/10 03:08:20;;;;;;;6.00;1.70;;;;;;;1.55;98.30;100729.77;104817;1274;61235;-73
2022/04/10 03:10:47;;;;;;;3.80;1.50;;;;;;;1.56;98.26;100738.54;104905;1274;61191;-72
2022/04/10 03:13:14;;;;;;;6.60;2.10;;;;;;;1.58;98.07;100737.02;104839;1274;61236;-72
2022/04/10 03:15:41;;;;;;;13.20;1.40;;;;;;;1.59;98.08;100738.31;104908;1274;71398;-71
2022/04/10 03:18:08;;;;;;;6.60;1.50;;;;;;;1.60;97.99;100737.61;104860;1274;71968;-71
2022/04/10 03:20:35;;;;;;;5.00;1.60;;;;;;;1.61;97.75;100734.32;104748;1277;62235;-72
2022/04/10 03:23:08;;;;;;;6.10;1.50;;;;;;;1.62;97.64;100736.91;104870;1274;62080;-72
2022/04/10 03:25:35;;;;;;;10.40;1.90;;;;;;;1.60;97.74;100739.61;104852;1274;74494;-71
2022/04/10 03:28:03;;;;;;;4.90;1.60;;;;;;;1.59;97.87;100740.46;104842;1276;71632;-71
2022/04/10 03:30:29;;;;;;;5.60;1.80;;;;;;;1.57;97.79;100742.00;104895;1277;73898;-75
2022/04/10 03:32:56;;;;;;;4.70;1.10;;;;;;;1.54;97.53;100739.61;104833;1274;62986;-71
2022/04/10 03:35:23;;;;;;;3.10;1.10;;;;;;;1.50;97.58;100747.39;104872;1274;61116;-72
2022/04/10 03:37:49;;;;;;;4.80;1.50;;;;;;;1.46;97.54;100747.35;104902;1274;74609;-71
2022/04/10 03:40:16;;;;;;;6.30;1.70;;;;;;;1.43;97.92;100743.73;104846;1274;70765;-72
2022/04/10 03:42:47;;;;;;;2.40;0.90;;;;;;;1.39;97.80;100749.42;104905;1274;71944;-70
2022/04/10 03:45:14;;;;;;;4.50;1.40;;;;;;;1.34;98.31;100748.20;104835;1274;62758;-72
2022/04/10 03:47:41;;;;;;;5.20;1.50;;;;;;;1.32;98.41;100745.95;104879;1274;61255;-71
2022/04/10 03:50:07;;;;;;;5.40;1.50;;;;;;;1.29;98.58;100757.88;104886;1274;76557;-72
2022/04/10 03:52:34;;;;;;;7.80;1.50;;;;;;;1.27;98.81;100752.96;104755;1274;71240;-74
2022/04/10 03:55:07;;;;;;;8.80;2.00;;;;;;;1.24;99.02;100760.85;104850;1274;72755;-70
2022/04/10 03:57:33;;;;;;;7.90;1.70;;;;;;;1.20;99.25;100764.04;104789;1276;61263;-71
2022/04/10 04:00:00;;;;;;;9.10;1.90;;;;;;;1.17;99.40;100765.64;104777;1274;62097;-70
2022/04/10 04:02:27;;;;;;;17.20;2.60;;;;;;;1.14;99.56;100764.02;104886;1274;73700;-71
2022/04/10 04:04:54;;;;;;;8.00;2.20;;;;;;;1.10;99.73;100768.65;104871;1274;72561;-71
2022/04/10 04:07:21;;;;;;;9.70;2.00;;;;;;;1.05;99.87;100767.27;104815;1274;72935;-72
2022/04/10 04:09:47;;;;;;;8.70;2.20;;;;;;;1.03;100.00;100778.77;104880;1274;61143;-70
2022/04/10 04:12:14;;;;;;;4.80;1.30;;;;;;;1.03;100.00;100782.95;104844;1274;61429;-74
2022/04/10 04:14:41;;;;;;;8.20;2.20;;;;;;;1.03;100.00;100786.39;104874;1274;61462;-72
2022/04/10 04:17:10;;;;;;;16.80;2.90;;;;;;;1.03;100.00;100789.58;104878;1274;72214;-72
2022/04/10 04:19:37;;;;;;;8.80;1.70;;;;;;;1.03;99.99;100788.17;104892;1274;74102;-71
2022/04/10 04:22:04;;;;;;;4.30;1.60;;;;;;;1.02;99.92;100787.32;104784;1275;61533;-73
2022/04/10 04:24:32;;;;;;;16.20;2.50;;;;;;;1.00;99.78;100801.91;104876;1274;61359;-72
2022/04/10 04:26:59;;;;;;;5.40;1.70;;;;;;;1.00;99.90;100801.42;104773;1275;74903;-72
2022/04/10 04:29:25;;;;;;;11.90;2.00;;;;;;;0.99;99.90;100810.68;104846;1274;61390;-71
2022/04/10 04:31:52;;;;;;;10.00;1.90;;;;;;;1.00;99.92;100818.86;104852;1275;72767;-72
2022/04/10 04:34:21;;;;;;;7.50;2.20;;;;;;;1.00;99.96;100822.80;104807;1277;61489;-68
2022/04/10 04:36:48;;;;;;;12.00;3.00;;;;;;;1.04;99.99;100821.66;104827;1276;61193;-76
2022/04/10 04:39:14;;;;;;;7.50;1.70;;;;;;;1.09;99.87;100815.02;104870;1275;75874;-72
2022/04/10 04:41:46;;;;;;;5.90;1.50;;;;;;;1.12;99.85;100821.63;104829;1276;71234;-70
2022/04/10 04:44:13;;;;;;;11.00;1.60;;;;;;;1.15;99.87;100824.33;104843;1274;73155;-71
2022/04/10 04:46:39;;;;;;;3.10;1.50;;;;;;;1.20;99.70;100822.95;104893;1275;61474;-71
2022/04/10 04:49:06;;;;;;;6.90;1.40;;;;;;;1.21;99.68;100828.23;104835;1275;62374;-71
2022/04/10 04:51:34;;;;;;;7.20;1.60;;;;;;;1.24;99.61;100834.87;104866;1274;74891;-72
2022/04/10 04:54:02;;;;;;;7.30;1.40;;;;;;;1.25;99.33;100832.71;104919;1277;71389;-71
2022/04/10 04:56:29;;;;;;;14.50;1.90;;;;;;;1.26;99.24;100835.58;104710;1276;72994;-68
2022/04/10 04:58:55;;;;;;;7.80;1.70;;;;;;;1.27;99.08;100841.80;104766;1277;61343;-73
2022/04/10 05:01:23;;;;;;;5.30;1.80;;;;;;;1.27;99.16;100844.04;104861;1275;61217;-71
2022/04/10 05:03:49;;;;;;;5.70;1.70;;;;;;;1.27;98.99;100847.77;104912;1274;75476;-71
2022/04/10 05:06:16;;;;;;;5.80;2.10;;;;;;;1.26;98.90;100857.77;104850;1275;72367;-72
2022/04/10 05:08:46;;;;;;;6.00;2.00;;;;;;;1.27;98.55;100860.99;104806;1276;73974;-70
2022/04/10 05:11:14;;;;;;;3.20;1.50;;;;;;;1.27;98.57;100863.55;104860;1274;62258;-70
2022/04/10 05:13:41;;;;;;;4.10;1.70;;;;;;;1.27;98.43;100869.00;104811;1277;61219;-68
2022/04/10 05:16:08;;;;;;;5.80;1.60;;;;;;;1.27;98.24;100874.39;104859;1275;74956;-71
2022/04/10 05:18:35;;;;;;;10.20;2.10;;;;;;;1.29;98.17;100878.12;104908;1275;71071;-71
2022/04/10 05:21:02;;;;;;;4.70;1.30;;;;;;;1.31;97.97;100881.70;104814;1275;74013;-71
2022/04/10 05:23:29;;;;;;;10.20;2.80;;;;;;;1.35;97.57;100884.95;104867;1274;61232;-74
2022/04/10 05:25:56;;;;;;;13.20;3.70;;;;;;;1.38;97.70;100887.54;104795;1275;61477;-71
2022/04/10 05:28:23;;;;;;;4.10;1.40;;;;;;;1.39;97.45;100888.30;104835;1274;76036;-71
2022/04/10 05:30:49;;;;;;;6.30;1.40;;;;;;;1.40;97.40;100891.34;104854;1274;70271;-71
2022/04/10 05:33:16;;;;;;;13.90;2.20;;;;;;;1.44;97.33;100895.09;104855;1274;73202;-71
2022/04/10 05:35:43;;;;;;;7.70;1.70;;;;;;;1.48;96.77;100900.41;104844;1275;62574;-72
2022/04/10 05:38:10;;;;;;;1.30;0.80;;;;;;;1.55;96.65;100895.67;104837;1274;61289;-75
2022/04/10 05:40:36;;;;;;;9.10;3.10;;;;;;;1.68;96.20;100907.86;104769;1274;75066;-72
2022/04/10 05:43:03;;;;;;;6.20;1.40;;;;;;;1.76;95.80;100898.32;104740;1277;72395;-70
2022/04/10 05:45:30;;;;;;;8.40;1.40;;;;;;;1.81;95.46;100904.79;104799;1274;73095;-72
2022/04/10 05:47:57;;;;;;;3.70;1.10;;;;;;;1.84;95.07;100910.14;104797;1277;62506;-71
2022/04/10 05:50:24;;;;;;;4.00;2.00;;;;;;;1.88;94.82;100913.69;104886;1274;61390;-70
2022/04/10 05:52:51;;;;;;;7.50;1.60;;;;;;;1.91;94.45;100920.06;104874;1277;74939;-68
2022/04/10 05:55:18;;;;;;;9.70;2.30;;;;;;;1.92;94.46;100931.67;104941;1274;71339;-72
2022/04/10 05:57:46;;;;;;;6.80;2.20;;;;;;;1.93;94.31;100931.97;104952;1274;73002;-71
2022/04/10 06:00:21;;;;;;;7.50;1.50;;;;;;;1.96;93.95;100930.31;104791;1274;61494;-71
2022/04/10 06:02:48;;;;;;;12.50;2.70;;;;;;;2.03;94.17;100934.34;104836;1275;61242;-71
2022/04/10 06:05:15;;;;;;;7.00;2.30;;;;;;;2.11;93.73;100927.13;104859;1275;75482;-72
2022/04/10 06:07:44;;;;;;;7.90;2.30;;;;;;;2.25;93.60;100934.16;104867;1274;72736;-73
2022/04/10 06:10:10;;;;;;;11.20;1.70;;;;;;;2.36;93.13;100939.61;104717;1277;72910;-73
2022/04/10 06:12:37;;;;;;;10.00;2.90;;;;;;;2.45;92.24;100938.57;104883;1275;61276;-70
2022/04/10 06:15:04;;;;;;;9.60;1.80;;;;;;;2.52;91.33;100936.45;104864;1274;61418;-69
2022/04/10 06:17:38;;;;;;;12.50;1.80;;;;;;;2.67;91.10;100940.76;104865;1275;74793;-72
2022/04/10 06:20:06;;;;;;;9.10;2.90;;;;;;;2.80;90.16;100946.36;104883;1275;71431;-71
2022/04/10 06:22:32;;;;;;;8.10;1.30;;;;;;;2.84;89.53;100936.98;104777;1275;74068;-70
2022/04/10 06:24:59;;;;;;;9.10;2.50;;;;;;;2.86;89.22;100936.44;104865;1275;61257;-71
2022/04/10 06:27:26;;;;;;;5.30;1.50;;;;;;;2.94;89.60;100935.86;104882;1275;61339;-73
2022/04/10 06:29:52;;;;;;;7.40;1.60;;;;;;;2.97;89.08;100947.90;104866;1275;61246;-71
2022/04/10 06:32:19;;;;;;;5.00;1.60;;;;;;;2.94;88.55;100940.05;104885;1275;72529;-72
2022/04/10 06:34:46;;;;;;;6.10;1.80;;;;;;;2.92;88.54;100947.94;104811;1274;74001;-71
2022/04/10 06:37:15;;;;;;;5.10;2.10;;;;;;;2.91;88.43;100946.73;104741;1277;61285;-72
2022/04/10 06:39:41;;;;;;;4.00;1.10;;;;;;;2.92;88.15;100951.56;104882;1274;61593;-71
2022/04/10 06:42:09;;;;;;;12.50;2.00;;;;;;;2.93;87.99;100960.95;104778;1277;75142;-71
2022/04/10 06:44:35;;;;;;;8.90;1.60;;;;;;;2.98;87.41;100957.38;104856;1274;71492;-70
2022/04/10 06:47:02;;;;;;;9.00;2.10;;;;;;;3.08;87.42;100957.34;104828;1275;61257;-73
2022/04/10 06:49:28;;;;;;;3.90;1.10;;;;;;;3.19;87.49;100962.94;104837;1275;62269;-72
2022/04/10 06:51:55;;;;;;;9.80;2.10;;;;;;;3.26;86.16;100959.06;104699;1276;62358;-70
2022/04/10 06:54:21;;;;;;;3.50;1.20;;;;;;;3.33;85.43;100966.36;104916;1274;61293;-73
2022/04/10 06:56:48;;;;;;;6.80;2.00;;;;;;;3.40;85.26;100961.27;104853;1275;61353;-72
2022/04/10 06:59:15;;;;;;;15.00;2.10;;;;;;;3.46;84.99;100965.81;104829;1275;61326;-72
2022/04/10 07:01:41;;;;;;;8.10;2.10;;;;;;;3.52;84.64;100972.35;104838;1275;61644;-72
2022/04/10 07:04:09;;;;;;;4.20;1.30;;;;;;;3.56;83.82;100970.50;104878;1277;61338;-69
2022/04/10 07:06:35;;;;;;;6.40;1.70;;;;;;;3.64;84.34;100970.52;104875;1274;75017;-70
2022/04/10 07:09:02;;;;;;;5.10;1.60;;;;;;;3.74;84.19;100975.70;104859;1277;61199;-72
2022/04/10 07:11:29;;;;;;;4.10;1.50;;;;;;;3.78;82.48;100978.57;104832;1275;61365;-72
2022/04/10 07:13:58;;;;;;;5.90;1.40;;;;;;;3.82;82.67;100979.43;104808;1276;61331;-71
2022/04/10 07:16:25;;;;;;;11.10;2.90;;;;;;;3.87;82.36;100984.61;104878;1274;61642;-72
2022/04/10 07:18:52;;;;;;;3.80;1.60;;;;;;;3.93;82.72;100983.39;104899;1277;74604;-73
2022/04/10 07:23:41;;;;;;;3.60;0.90;;;;;;;3.98;82.47;100977.21;104848;1275;61286;-72
2022/04/10 07:24:05;;;;;;;5.40;1.50;;;;;;;4.06;82.90;100973.58;104904;1277;73974;-72
2022/04/10 07:26:32;;;;;;;10.30;2.50;;;;;;;4.09;82.64;100985.42;104826;1275;62460;-72
2022/04/10 07:28:59;;;;;;;6.70;1.60;;;;;;;4.06;80.97;100978.14;104846;1274;61663;-71
2022/04/10 07:31:25;;;;;;;4.90;1.60;;;;;;;4.20;81.69;100981.25;104847;1277;61927;-72
2022/04/10 07:33:52;;;;;;;2.40;1.20;;;;;;;4.26;81.38;100981.61;104888;1275;71574;-69
2022/04/10 07:36:18;;;;;;;4.20;1.40;;;;;;;4.32;79.73;100989.55;104746;1277;74307;-72
2022/04/10 07:38:45;;;;;;;11.60;1.90;;;;;;;4.35;79.72;100986.13;104831;1274;62834;-71
2022/04/10 07:41:12;;;;;;;6.50;1.60;;;;;;;4.39;79.03;100990.02;104829;1275;61339;-70
2022/04/10 07:43:38;;;;;;;5.50;1.30;;;;;;;4.45;78.98;100989.85;104852;1274;74799;-70
2022/04/10 07:48:53;;;;;;;4.30;1.40;;;;;;;4.61;77.95;100988.67;104917;1274;73781;-70
2022/04/10 07:51:20;;;;;;;3.00;1.10;;;;;;;4.66;77.70;100985.13;104861;1274;61277;-71
2022/04/10 07:53:47;;;;;;;6.50;1.30;;;;;;;4.75;77.97;100986.96;104782;1277;61571;-72
2022/04/10 07:56:16;;;;;;;8.20;1.50;;;;;;;4.76;76.77;100990.90;104691;1277;74951;-71
2022/04/10 07:58:42;;;;;;;7.70;1.50;;;;;;;4.80;77.32;100988.09;104856;1275;71362;-69
2022/04/10 08:01:09;;;;;;;8.60;1.90;;;;;;;4.94;77.90;100990.79;104796;1275;72925;-74
2022/04/10 08:03:36;;;;;;;7.80;1.80;;;;;;;5.09;78.37;100991.08;104688;1277;62168;-70
2022/04/10 08:06:02;;;;;;;8.90;1.70;;;;;;;5.23;77.33;101003.20;104858;1275;61241;-69
2022/04/10 08:08:36;;;;;;;5.00;1.30;;;;;;;5.30;76.42;101012.45;104746;1274;76829;-68
2022/04/10 08:11:10;;;;;;;6.70;1.40;;;;;;;5.40;76.23;101011.43;104864;1274;71406;-70
2022/04/10 08:13:37;;;;;;;6.60;1.30;;;;;;;5.46;75.83;101011.34;104884;1274;73970;-72
2022/04/10 08:16:04;;;;;;;3.90;1.20;;;;;;;5.51;75.01;101014.96;104842;1275;61552;-72
2022/04/10 08:18:38;;;;;;;8.00;1.70;;;;;;;5.46;75.03;101014.03;104873;1274;62559;-71
2022/04/10 08:21:11;;;;;;;4.30;1.30;;;;;;;5.53;74.78;101026.05;104834;1274;75054;-71
2022/04/10 08:23:37;;;;;;;6.50;1.30;;;;;;;5.65;74.22;101026.77;104850;1274;72438;-71
2022/04/10 08:26:04;;;;;;;5.00;1.50;;;;;;;5.76;73.54;101025.08;104841;1274;73007;-72
2022/04/10 08:28:37;;;;;;;8.80;1.90;;;;;;;5.90;73.85;101023.13;104831;1277;61884;-71
2022/04/10 08:31:07;;;;;;;8.90;1.00;;;;;;;5.95;71.89;101031.02;104707;1277;61308;-74
2022/04/10 08:33:34;;;;;;;6.20;1.40;;;;;;;6.03;71.68;101021.83;104854;1274;74447;-70
2022/04/10 08:36:01;;;;;;;9.90;2.50;;;;;;;6.15;70.52;101025.16;104868;1274;71367;-72
2022/04/10 08:38:28;;;;;;;7.70;2.40;;;;;;;6.38;70.17;101029.60;104801;1277;74020;-71
2022/04/10 08:41:00;;;;;;;3.40;1.00;;;;;;;6.49;70.33;101028.27;104801;1275;62352;-69
2022/04/10 08:43:28;;;;;;;4.30;1.60;;;;;;;6.58;70.00;101022.71;104792;1274;61613;-72
2022/04/10 08:45:57;;;;;;;4.30;1.10;;;;;;;6.62;69.02;101028.14;104832;1274;75004;-73
2022/04/10 08:48:26;;;;;;;4.00;1.20;;;;;;;6.66;68.28;101027.58;104883;1275;72595;-72
2022/04/10 08:50:56;;;;;;;5.20;0.80;;;;;;;6.70;68.20;101035.48;104847;1274;71689;-73
2022/04/10 08:53:25;;;;;;;7.10;1.40;;;;;;;6.60;68.09;101038.34;104873;1274;61381;-71
2022/04/10 08:55:52;;;;;;;4.20;1.10;;;;;;;6.52;68.42;101036.02;104846;1275;61132;-69
2022/04/10 08:58:20;;;;;;;3.80;1.90;;;;;;;6.49;69.51;101038.26;104795;1274;75060;-71
2022/04/10 09:00:46;;;;;;;7.20;1.60;;;;;;;6.48;68.85;101042.86;104873;1275;72382;-71
2022/04/10 09:03:13;;;;;;;4.50;1.30;;;;;;;6.48;68.82;101046.91;104711;1277;72976;-73
2022/04/10 09:05:40;;;;;;;2.80;1.00;;;;;;;6.57;69.81;101045.82;104826;1274;61902;-71
2022/04/10 09:08:12;;;;;;;8.80;1.30;;;;;;;6.57;69.05;101048.05;104748;1276;61302;-73
2022/04/10 09:10:55;;;;;;;6.60;0.90;;;;;;;6.62;68.97;101050.27;104906;1277;75157;-74
2022/04/10 09:13:29;;;;;;;4.30;0.90;;;;;;;6.67;67.62;101050.80;105006;1275;70216;-73
2022/04/10 09:16:02;;;;;;;4.70;1.40;;;;;;;6.81;67.47;101042.90;104942;1274;72883;-76
2022/04/10 09:18:29;;;;;;;3.70;0.80;;;;;;;6.79;67.69;101059.45;104911;1274;62458;-74
2022/04/10 09:21:11;;;;;;;4.40;1.30;;;;;;;6.54;66.38;101063.79;104988;1274;61246;-75
2022/04/10 09:23:37;;;;;;;4.70;0.90;;;;;;;6.26;67.32;101068.98;104914;1274;75982;-72
2022/04/10 09:26:10;;;;;;;5.40;0.90;;;;;;;6.23;67.58;101059.39;104979;1274;71826;-75
2022/04/10 09:29:02;;;;;;;1.80;0.70;;;;;;;6.15;66.97;101074.55;104922;1274;73988;-78
2022/04/10 09:31:34;;;;;;;2.20;0.80;;;;;;;6.17;67.87;101084.89;104889;1277;61252;-75
2022/04/10 09:34:06;;;;;;;3.50;1.10;;;;;;;6.12;67.99;101063.14;104966;1276;62680;-75
2022/04/10 09:36:40;;;;;;;5.50;1.30;;;;;;;6.10;67.29;101073.48;105088;1274;76157;-75
2022/04/10 09:39:30;;;;;;;3.60;0.80;;;;;;;6.16;65.67;101073.74;104996;1275;72738;-74
2022/04/10 09:42:09;;;;;;;2.40;0.60;;;;;;;6.32;64.80;101070.69;104971;1277;73013;-75
2022/04/10 09:44:55;;;;;;;3.20;0.90;;;;;;;6.63;65.53;101058.77;104998;1274;61498;-74
2022/04/10 09:47:25;;;;;;;2.80;0.90;;;;;;;6.93;64.43;101058.47;104971;1274;61257;-74
2022/04/10 09:49:53;;;;;;;6.50;1.00;;;;;;;7.07;63.56;101064.36;104933;1274;76162;-72
2022/04/10 09:52:20;;;;;;;5.80;1.90;;;;;;;6.92;62.99;101062.95;104954;1277;71080;-74
2022/04/10 09:54:50;;;;;;;2.70;0.90;;;;;;;6.82;62.68;101070.55;104968;1274;74267;-71
2022/04/10 09:57:19;;;;;;;6.70;1.30;;;;;;;6.78;62.19;101060.61;104967;1277;62217;-73
2022/04/10 09:59:50;;;;;;;6.00;1.20;;;;;;;6.86;62.59;101056.13;105001;1274;61325;-73
2022/04/10 10:02:19;;;;;;;5.40;1.40;;;;;;;6.72;61.81;101065.73;105180;1277;74902;-73
2022/04/10 10:04:48;;;;;;;3.50;1.00;;;;;;;6.79;61.14;101062.75;105425;1276;71300;-73
2022/04/10 10:07:19;;;;;;;3.60;0.90;;;;;;;6.84;59.52;101063.70;105431;1274;73025;-73
2022/04/10 10:09:48;;;;;;;4.10;1.00;;;;;;;6.78;59.87;101054.45;105223;1277;61316;-74
2022/04/10 10:12:16;;;;;;;9.30;1.80;;;;;;;6.70;60.51;101050.19;105242;1274;62557;-74
2022/04/10 10:14:44;;;;;;;2.90;0.90;;;;;;;6.66;60.82;101056.21;105057;1274;76003;-71
2022/04/10 10:17:11;;;;;;;4.50;0.90;;;;;;;6.76;59.95;101055.43;105163;1275;72526;-74
2022/04/10 10:19:39;;;;;;;3.20;1.30;;;;;;;7.05;59.67;101045.25;105076;1275;73082;-72
2022/04/10 10:22:09;;;;;;;4.70;0.90;;;;;;;7.26;57.66;101054.66;105059;1274;61261;-72
2022/04/10 10:24:52;;;;;;;4.50;0.90;;;;;;;7.20;57.59;101047.38;105024;1275;61758;-74
2022/04/10 10:27:38;;;;;;;4.80;0.90;;;;;;;7.03;58.68;101045.73;104974;1275;75973;-73
2022/04/10 10:30:18;;;;;;;3.50;1.00;;;;;;;6.80;57.77;101054.70;105079;1274;71284;-72
2022/04/10 10:32:52;;;;;;;4.80;0.70;;;;;;;6.59;58.15;101059.14;104988;1274;71918;-75
2022/04/10 10:35:40;;;;;;;1.50;0.60;;;;;;;6.66;59.33;101049.01;104990;1274;62150;-74
2022/04/10 10:38:24;;;;;;;2.70;0.60;;;;;;;7.04;58.89;101050.77;104933;1274;61329;-74
2022/04/10 10:41:11;;;;;;;5.90;1.40;;;;;;;7.27;57.03;101042.96;104989;1274;76027;-75
2022/04/10 10:43:38;;;;;;;1.60;0.60;;;;;;;7.41;56.20;101032.15;104944;1274;71409;-74
2022/04/10 10:46:34;;;;;;;2.70;0.70;;;;;;;7.55;56.13;101048.23;104870;1277;73041;-74
2022/04/10 10:49:19;;;;;;;3.50;1.00;;;;;;;7.47;56.47;101047.05;104970;1274;61254;-72
2022/04/10 10:51:53;;;;;;;2.00;0.80;;;;;;;7.51;55.20;101055.16;104931;1278;61645;-76
2022/04/10 10:54:31;;;;;;;3.90;0.90;;;;;;;7.72;55.56;101042.77;104980;1274;74857;-73
2022/04/10 10:56:57;;;;;;;4.20;0.90;;;;;;;7.97;55.17;101040.67;105004;1274;72269;-75
2022/04/10 10:59:34;;;;;;;4.80;0.80;;;;;;;8.23;55.21;101047.67;104866;1274;73794;-73
2022/04/10 11:02:12;;;;;;;2.70;0.70;;;;;;;8.18;54.25;101044.33;104938;1275;61275;-72
2022/04/10 11:04:59;;;;;;;7.00;1.60;;;;;;;8.03;55.10;101051.78;104940;1274;62094;-74
2022/04/10 11:07:27;;;;;;;2.40;1.00;;;;;;;8.02;55.21;101049.39;105029;1275;74854;-73
2022/04/10 11:10:07;;;;;;;2.20;1.20;;;;;;;8.06;55.66;101042.85;105017;1274;69739;-73
2022/04/10 11:12:35;;;;;;;2.90;1.30;;;;;;;8.10;56.58;101036.75;104974;1274;73299;-71
2022/04/10 11:15:04;;;;;;;2.70;1.00;;;;;;;8.18;55.05;101052.38;104912;1274;61233;-72
2022/04/10 11:17:32;;;;;;;4.40;0.90;;;;;;;8.16;53.93;101045.16;104966;1274;61384;-74
2022/04/10 11:20:05;;;;;;;4.90;1.10;;;;;;;8.16;55.41;101036.40;104943;1274;74950;-74
2022/04/10 11:22:36;;;;;;;5.30;1.00;;;;;;;8.34;57.62;101046.48;104992;1274;71541;-74
2022/04/10 11:25:09;;;;;;;3.30;1.00;;;;;;;8.43;56.84;101050.66;104968;1274;73859;-75
2022/04/10 11:27:45;;;;;;;3.50;1.10;;;;;;;8.41;56.69;101058.10;104974;1274;61905;-74
2022/04/10 11:30:14;;;;;;;2.40;0.80;;;;;;;8.42;56.20;101064.39;104962;1274;61223;-76
2022/04/10 11:32:48;;;;;;;5.50;0.90;;;;;;;8.45;54.46;101050.70;104870;1274;75787;-74
2022/04/10 11:35:32;;;;;;;4.00;0.70;;;;;;;8.57;56.25;101048.39;104904;1274;71380;-73